Saginaw Browne, MI

2:38 PM EDT on April 22, 2018 (GMT -0400)
Saginaw County-Browne

Weather History for KHYX - March, 2013

Change the Weather History Date:

Sunday, March 17, 2013

  Actual Average (KMBS) Record (KMBS)
Temperature  
Mean Temperature 24 °F -  
Max Temperature 28 °F 38 °F 80 °F (2012)
Min Temperature 19 °F 23 °F 10 °F (2014)
Degree Days  
Heating Degree Days 42    
Moisture  
Dew Point 16 °F    
Average Humidity 74    
Maximum Humidity 93    
Minimum Humidity 58    
Precipitation  
Precipitation 0.00 in - - ()
Sea Level Pressure  
Sea Level Pressure 30.21 in    
Wind  
Wind Speed 8 mph (NNE)    
Max Wind Speed 16 mph    
Max Gust Speed 18 mph    
Visibility 10 miles    
Events Snow    
Averages and records for this station are not official NWS values.
T = Trace of Precipitation, MM = Missing Value Source: NWS Daily Summary

Daily Weather History Graph

Daily Weather History Graph

Search for Another Location

Airport or City:

Astronomy

Mar. 17, 2013 Rise Set
Actual Time 7:43 AM EDT 7:44 PM EDT
Civil Twilight 7:15 AM EDT 8:12 PM EDT
Nautical Twilight 6:41 AM EDT 8:46 PM EDT
Astronomical Twilight 6:07 AM EDT 9:20 PM EDT
Moon 10:45 AM EDT (3/17) 1:00 AM EDT (3/17)
Length of Visible Light 12h 57m
Length of Day
12h 00m
Waxing Crescent, 31% of the Moon is Illuminated
Mar 17
Waxing Crescent
Mar 19
First Quarter
Mar 27
Full
Apr 3
Last Quarter
Apr 10
New

Hourly Weather History & Observations

Time (EDT) Temp. Windchill Dew Point Humidity Pressure Visibility Wind Dir Wind Speed Gust Speed Precip Events Conditions
12:12 AM 26.6 °F - 24.8 °F 93% 30.03 in 10.0 mi Calm Calm - N/A   Overcast
12:32 AM 26.6 °F 19.1 °F 24.8 °F 93% 30.03 in 10.0 mi NNW 6.9 mph - N/A Snow Light Snow
12:52 AM 26.6 °F 19.1 °F 24.8 °F 93% 30.04 in 10.0 mi NNW 6.9 mph - N/A   Overcast
1:12 AM 26.6 °F 18.2 °F 23.0 °F 86% 30.04 in 10.0 mi NNW 8.1 mph - N/A   Overcast
1:32 AM 26.6 °F 19.1 °F 23.0 °F 86% 30.05 in 10.0 mi NNW 6.9 mph - N/A   Overcast
1:52 AM 24.8 °F 16.1 °F 23.0 °F 93% 30.06 in 10.0 mi NW 8.1 mph - N/A   Overcast
2:13 AM 23.0 °F 15.8 °F 19.4 °F 86% 30.07 in 10.0 mi NW 5.8 mph - N/A   Scattered Clouds
2:33 AM 21.2 °F 12.6 °F 17.6 °F 86% 30.08 in 10.0 mi WNW 6.9 mph - N/A   Clear
2:53 AM 21.2 °F 14.9 °F 15.8 °F 80% 30.08 in 10.0 mi WNW 4.6 mph - N/A   Clear
3:13 AM 21.2 °F 16.4 °F 14.0 °F 74% 30.08 in 10.0 mi WSW 3.5 mph - N/A   Clear
3:33 AM 21.2 °F 16.4 °F 14.0 °F 74% 30.08 in 10.0 mi WSW 3.5 mph - N/A   Clear
3:53 AM 21.2 °F 16.4 °F 17.6 °F 86% 30.08 in 10.0 mi WSW 3.5 mph - N/A   Mostly Cloudy
4:13 AM 23.0 °F 17.0 °F 17.6 °F 80% - 10.0 mi WSW 4.6 mph - N/A   Mostly Cloudy
4:33 AM 21.2 °F 13.6 °F 15.8 °F 80% 30.08 in 10.0 mi West 5.8 mph - N/A   Scattered Clouds
4:53 AM 23.0 °F 13.1 °F 17.6 °F 80% 30.09 in 10.0 mi WNW 9.2 mph - N/A   Clear
5:13 AM 23.0 °F 12.4 °F 17.6 °F 80% 30.10 in 10.0 mi NW 10.4 mph - N/A   Clear
5:34 AM 21.2 °F 10.9 °F 17.6 °F 86% 30.11 in 10.0 mi NNW 9.2 mph - N/A   Clear
5:54 AM 21.2 °F 10.1 °F 15.8 °F 80% 30.13 in 10.0 mi NNW 10.4 mph - N/A   Clear
6:34 AM 21.2 °F 10.1 °F 14.0 °F 74% 30.15 in 10.0 mi North 10.4 mph - N/A   Scattered Clouds
6:54 AM 21.2 °F 10.1 °F 14.0 °F 74% 30.16 in 10.0 mi North 10.4 mph - N/A   Clear
7:14 AM 21.2 °F 9.5 °F 14.0 °F 74% 30.17 in 10.0 mi North 11.5 mph - N/A   Clear
7:34 AM 19.4 °F 10.4 °F 14.0 °F 80% 30.18 in 10.0 mi North 6.9 mph - N/A   Scattered Clouds
7:54 AM 21.2 °F 7.8 °F 14.0 °F 74% 30.19 in 10.0 mi NNE 15.0 mph - N/A   Scattered Clouds
8:14 AM 21.2 °F 10.1 °F 12.2 °F 68% 30.21 in 10.0 mi NNE 10.4 mph - N/A   Scattered Clouds
8:34 AM 21.2 °F 8.9 °F 12.2 °F 68% 30.22 in 10.0 mi NNE 12.7 mph - N/A   Scattered Clouds
8:54 AM 21.2 °F 8.9 °F 12.2 °F 68% 30.23 in 10.0 mi NNE 12.7 mph - N/A   Clear
9:14 AM 21.2 °F 7.8 °F 14.0 °F 74% 30.24 in 10.0 mi NNE 15.0 mph 18.4 mph N/A   Clear
9:35 AM 21.2 °F 7.8 °F 14.0 °F 74% 30.26 in 10.0 mi NNE 15.0 mph - N/A   Clear
9:55 AM 21.2 °F 9.5 °F 12.2 °F 68% 30.27 in 10.0 mi NNE 11.5 mph 18.4 mph N/A   Clear
10:15 AM 21.2 °F 7.8 °F 8.6 °F 58% 30.27 in 10.0 mi NNE 15.0 mph - N/A   Clear
10:35 AM 21.2 °F 8.9 °F 10.4 °F 63% 30.29 in 10.0 mi NNE 12.7 mph - N/A   Clear
10:55 AM 21.2 °F 9.5 °F 12.2 °F 68% 30.29 in 10.0 mi NNE 11.5 mph - N/A   Clear
11:15 AM 21.2 °F 10.1 °F 10.4 °F 63% 30.29 in 10.0 mi NNE 10.4 mph - N/A   Clear
11:35 AM 23.0 °F 13.1 °F 12.2 °F 63% 30.30 in 10.0 mi NNE 9.2 mph - N/A   Clear
11:51 AM 23.0 °F 13.1 °F 12.2 °F 63% 30.30 in 10.0 mi NNE 9.2 mph - N/A   Clear
12:11 PM 23.0 °F 13.9 °F 12.2 °F 63% 30.30 in 10.0 mi North 8.1 mph - N/A   Clear
12:31 PM 23.0 °F 13.9 °F 10.4 °F 59% 30.30 in 10.0 mi NE 8.1 mph - N/A   Clear
12:51 PM 23.0 °F 12.4 °F 12.2 °F 63% 30.30 in 10.0 mi ENE 10.4 mph - N/A   Clear
1:11 PM 24.8 °F 14.6 °F 12.2 °F 59% 30.30 in 10.0 mi NE 10.4 mph - N/A   Clear
1:31 PM 24.8 °F 15.3 °F 14.0 °F 64% 30.30 in 10.0 mi NE 9.2 mph - N/A   Scattered Clouds
1:51 PM 26.6 °F 18.2 °F 17.6 °F 69% 30.30 in 10.0 mi NNE 8.1 mph - N/A   Mostly Cloudy
2:11 PM 24.8 °F 15.3 °F 15.8 °F 69% 30.30 in 10.0 mi NNE 9.2 mph - N/A   Mostly Cloudy
2:31 PM 24.8 °F 14.6 °F 17.6 °F 74% 30.29 in 10.0 mi NNE 10.4 mph - N/A   Overcast
2:51 PM 26.6 °F 17.5 °F 19.4 °F 74% 30.29 in 10.0 mi NNE 9.2 mph - N/A   Mostly Cloudy
3:11 PM 26.6 °F 17.5 °F 17.6 °F 69% 30.29 in 10.0 mi North 9.2 mph - N/A   Overcast
3:31 PM 26.6 °F 16.2 °F 19.4 °F 74% 30.28 in 10.0 mi NNE 11.5 mph 16.1 mph N/A   Mostly Cloudy
3:52 PM 26.6 °F 15.2 °F 19.4 °F 74% 30.27 in 10.0 mi NNE 13.8 mph - N/A   Scattered Clouds
4:12 PM 26.6 °F 16.8 °F 17.6 °F 69% 30.26 in 10.0 mi NNE 10.4 mph - N/A   Clear
4:32 PM 26.6 °F 15.7 °F 17.6 °F 69% 30.25 in 10.0 mi NE 12.7 mph 18.4 mph N/A   Clear
4:52 PM 26.6 °F 16.2 °F 17.6 °F 69% 30.25 in 10.0 mi NNE 11.5 mph - N/A   Clear
5:12 PM 28.4 °F 19.1 °F 17.6 °F 64% 30.24 in 10.0 mi ENE 10.4 mph - N/A   Clear
5:32 PM 28.4 °F 18.0 °F 17.6 °F 64% 30.24 in 10.0 mi ENE 12.7 mph 18.4 mph N/A   Clear
5:52 PM 26.6 °F 15.7 °F 17.6 °F 69% 30.24 in 10.0 mi NE 12.7 mph - N/A   Clear
6:12 PM 26.6 °F 15.2 °F 17.6 °F 69% 30.24 in 10.0 mi NE 13.8 mph - N/A   Clear
6:32 PM 26.6 °F 14.7 °F 17.6 °F 69% 30.25 in 10.0 mi NE 15.0 mph - N/A   Clear
6:52 PM 26.6 °F 15.2 °F 17.6 °F 69% 30.26 in 10.0 mi NE 13.8 mph - N/A   Clear
7:13 PM 24.8 °F 11.9 °F 15.8 °F 69% 30.25 in 10.0 mi ENE 16.1 mph - N/A   Clear
7:33 PM 24.8 °F 13.4 °F 15.8 °F 69% 30.25 in 10.0 mi NE 12.7 mph - N/A   Clear
7:53 PM 23.0 °F 11.1 °F 15.8 °F 74% 30.26 in 10.0 mi ENE 12.7 mph 16.1 mph N/A   Clear
8:13 PM 23.0 °F 12.4 °F 17.6 °F 80% 30.26 in 10.0 mi ENE 10.4 mph - N/A   Clear
8:33 PM 23.0 °F 11.1 °F 17.6 °F 80% 30.26 in 10.0 mi ENE 12.7 mph - N/A   Clear
8:53 PM 23.0 °F 12.4 °F 17.6 °F 80% 30.26 in 10.0 mi ENE 10.4 mph - N/A   Clear
9:13 PM 23.0 °F 13.9 °F 17.6 °F 80% 30.26 in 10.0 mi ENE 8.1 mph - N/A   Clear
9:33 PM 23.0 °F 12.4 °F 15.8 °F 74% 30.26 in 10.0 mi East 10.4 mph - N/A   Clear
9:54 PM 23.0 °F 12.4 °F 14.0 °F 68% 30.26 in 10.0 mi East 10.4 mph - N/A   Clear
10:14 PM 21.2 °F 10.1 °F 14.0 °F 74% 30.25 in 10.0 mi East 10.4 mph - N/A   Clear
10:34 PM 21.2 °F 9.5 °F 14.0 °F 74% 30.25 in 10.0 mi East 11.5 mph 16.1 mph N/A   Clear
10:54 PM 21.2 °F 10.1 °F 14.0 °F 74% 30.24 in 10.0 mi East 10.4 mph - N/A   Clear
11:14 PM 21.2 °F 10.9 °F 14.0 °F 74% 30.24 in 10.0 mi East 9.2 mph - N/A   Clear
11:34 PM 21.2 °F 11.7 °F 14.0 °F 74% 30.23 in 10.0 mi East 8.1 mph - N/A   Clear
11:54 PM 21.2 °F 12.6 °F 14.0 °F 74% 30.22 in 10.0 mi East 6.9 mph - N/A   Clear